Time;durP1;ratioP1;P1;durP2;ratioP2;P2;SDS_P1;SDS_P2;PMS_P1;PMS_P2;Temp;Humidity;BMP_temperature;BMP_pressure;BME280_temperature;BME280_humidity;BME280_pressure;Samples;Min_cycle;Max_cycle;Signal;HPM_P1;HPM_P2
2024/04/12 00:01:06;;;;;;;;;16.00;13.00;;;;;10.78;67.20;101816.55;112170;239;41114;-59
2024/04/12 00:04:08;;;;;;;;;14.00;12.00;;;;;10.79;67.22;101816.41;111970;235;169065;-60
2024/04/12 00:06:46;;;;;;;;;14.00;11.50;;;;;10.83;67.28;101818.20;112080;236;39722;-56
2024/04/12 00:09:23;;;;;;;;;14.00;12.00;;;;;10.87;67.14;101820.83;112090;235;41763;-56
2024/04/12 00:12:00;;;;;;;;;11.25;9.50;;;;;10.90;67.28;101820.31;112024;237;41704;-55
2024/04/12 00:14:43;;;;;;;;;12.00;10.00;;;;;10.93;67.33;101820.34;112109;235;40594;-57
2024/04/12 00:17:24;;;;;;;;;11.00;10.00;;;;;10.95;67.27;101823.59;111884;235;169121;-57
2024/04/12 00:20:02;;;;;;;;;15.50;12.25;;;;;10.97;67.22;101819.65;112090;236;40624;-60
2024/04/12 00:22:49;;;;;;;;;12.75;10.75;;;;;10.99;67.19;101817.82;111898;239;168727;-60
2024/04/12 00:25:26;;;;;;;;;11.00;9.00;;;;;11.00;67.30;101822.50;112101;235;40659;-60
2024/04/12 00:28:05;;;;;;;;;14.00;11.00;;;;;11.03;67.36;101826.16;111948;239;169214;-60
2024/04/12 00:30:48;;;;;;;;;11.00;8.00;;;;;11.03;67.35;101826.13;112147;235;42123;-57
2024/04/12 00:33:23;;;;;;;;;9.67;9.00;;;;;11.05;67.49;101824.55;112142;239;42146;-57
2024/04/12 00:36:06;;;;;;;;;10.00;8.00;;;;;11.06;67.44;101823.15;112154;239;40758;-60
2024/04/12 00:38:46;;;;;;;;;10.25;9.00;;;;;11.10;67.40;101824.59;112100;239;41172;-60
2024/04/12 00:41:24;;;;;;;;;11.50;9.50;;;;;11.10;67.57;101822.33;112043;239;168651;-57
2024/04/12 00:44:05;;;;;;;;;14.67;11.67;;;;;11.12;67.29;101816.70;112206;239;42117;-57
2024/04/12 00:46:46;;;;;;;;;14.67;13.00;;;;;11.16;67.36;101817.06;112131;239;169602;-57
2024/04/12 00:49:30;;;;;;;;;13.00;10.75;;;;;11.22;67.12;101813.70;112476;239;40264;-58
2024/04/12 00:52:07;;;;;;;;;15.00;11.00;;;;;11.28;67.25;101808.63;112302;235;169724;-57
2024/04/12 00:54:44;;;;;;;;;14.00;11.00;;;;;11.32;67.04;101802.22;112298;235;40909;-57
2024/04/12 00:57:18;;;;;;;;;12.75;10.25;;;;;11.39;67.01;101802.57;112581;235;40266;-56
2024/04/12 00:59:56;;;;;;;;;12.00;9.75;;;;;11.42;67.09;101800.83;112152;235;39816;-59
2024/04/12 01:02:39;;;;;;;;;12.75;10.50;;;;;11.44;67.12;101796.78;112495;234;40557;-59
2024/04/12 01:05:16;;;;;;;;;13.00;11.00;;;;;11.45;66.91;101795.05;112068;238;168923;-59
2024/04/12 01:08:00;;;;;;;;;14.75;12.00;;;;;11.48;66.72;101791.90;112645;235;39704;-61
2024/04/12 01:10:38;;;;;;;;;14.00;12.00;;;;;11.52;66.64;101793.77;112052;236;168873;-56
2024/04/12 01:13:17;;;;;;;;;12.00;10.00;;;;;11.53;66.78;101793.69;112284;234;42464;-56
2024/04/12 01:16:05;;;;;;;;;11.33;8.67;;;;;11.52;67.08;101798.79;112205;234;169732;-56
2024/04/12 01:18:42;;;;;;;;;12.00;9.00;;;;;11.53;66.91;101802.52;112403;235;42207;-56
2024/04/12 01:21:26;;;;;;;;;11.00;9.33;;;;;11.53;66.95;101802.58;112753;235;40305;-60
2024/04/12 01:24:06;;;;;;;;;11.00;9.00;;;;;11.53;67.02;101806.27;112173;235;41390;-59
2024/04/12 01:26:46;;;;;;;;;10.25;8.00;;;;;11.54;66.93;101810.56;112471;238;39683;-56
2024/04/12 01:29:23;;;;;;;;;9.50;7.50;;;;;11.54;67.18;101815.08;112030;235;168762;-56
2024/04/12 01:32:05;;;;;;;;;10.67;9.00;;;;;11.54;66.97;101817.36;112578;235;40025;-57
2024/04/12 01:34:50;;;;;;;;;10.00;8.50;;;;;11.54;67.04;101817.09;112158;235;168861;-56
2024/04/12 01:37:35;;;;;;;;;11.00;8.00;;;;;11.54;67.03;101815.78;112489;239;40318;-56
2024/04/12 01:40:12;;;;;;;;;10.67;8.67;;;;;11.54;67.00;101820.41;112327;235;168843;-57
2024/04/12 01:42:51;;;;;;;;;10.33;8.00;;;;;11.55;67.14;101819.66;112270;239;40493;-57
2024/04/12 01:45:33;;;;;;;;;10.67;9.67;;;;;11.55;67.04;101811.70;112612;239;41280;-57
2024/04/12 01:48:08;;;;;;;;;10.00;9.00;;;;;11.56;67.06;101809.81;112141;236;39726;-57
2024/04/12 01:50:42;;;;;;;;;12.00;9.00;;;;;11.55;67.27;101813.65;112683;239;41504;-60
2024/04/12 01:53:22;;;;;;;;;10.75;9.00;;;;;11.55;67.64;101820.04;112089;239;169394;-61
2024/04/12 01:56:02;;;;;;;;;13.75;12.00;;;;;11.55;67.72;101813.52;112682;239;41113;-60
2024/04/12 01:58:35;;;;;;;;;11.00;10.00;;;;;11.56;67.40;101814.98;112294;239;170751;-61
2024/04/12 02:01:16;;;;;;;;;14.00;11.75;;;;;11.58;67.59;101818.10;112428;235;40508;-57
2024/04/12 02:03:52;;;;;;;;;13.50;11.50;;;;;11.62;67.64;101818.50;112453;235;169916;-57
2024/04/12 02:06:34;;;;;;;;;12.00;10.00;;;;;11.65;67.80;101816.75;112317;235;40261;-56
2024/04/12 02:09:20;;;;;;;;;13.00;11.00;;;;;11.69;67.78;101813.13;112615;235;40439;-56
2024/04/12 02:11:57;;;;;;;;;10.50;9.00;;;;;11.71;67.62;101813.23;112012;239;168589;-59
2024/04/12 02:14:34;;;;;;;;;11.50;9.50;;;;;11.73;67.48;101812.35;112270;236;40233;-60
2024/04/12 02:17:14;;;;;;;;;12.00;10.00;;;;;11.75;67.26;101811.92;112001;239;168828;-60
2024/04/12 02:19:49;;;;;;;;;17.00;13.00;;;;;11.77;67.14;101806.89;112662;235;39854;-57
2024/04/12 02:22:25;;;;;;;;;9.75;7.75;;;;;11.76;67.12;101802.92;112283;235;169078;-57
2024/04/12 02:25:13;;;;;;;;;11.00;9.00;;;;;11.71;67.18;101804.43;112367;235;40289;-60
2024/04/12 02:27:55;;;;;;;;;12.00;9.67;;;;;11.67;67.19;101810.09;112443;239;168793;-60
2024/04/12 02:30:32;;;;;;;;;13.00;11.00;;;;;11.56;66.99;101810.31;112326;235;40948;-56
2024/04/12 02:33:08;;;;;;;;;9.75;9.00;;;;;11.44;67.06;101813.98;112570;239;40565;-56
2024/04/12 02:35:43;;;;;;;;;9.00;8.00;;;;;11.31;67.21;101814.12;111995;235;168564;-60
2024/04/12 02:38:21;;;;;;;;;9.00;7.67;;;;;11.17;67.19;101816.23;112671;235;39977;-60
2024/04/12 02:40:58;;;;;;;;;12.00;10.75;;;;;11.03;67.36;101819.14;112185;235;168378;-57
2024/04/12 02:43:35;;;;;;;;;13.25;11.25;;;;;10.90;67.44;101820.18;112517;239;40839;-57
2024/04/12 02:46:13;;;;;;;;;9.75;8.00;;;;;10.77;67.74;101822.03;112382;235;170002;-59
2024/04/12 02:49:04;;;;;;;;;11.00;9.00;;;;;10.64;67.86;101821.56;112295;235;40814;-59
2024/04/12 02:51:47;;;;;;;;;10.00;8.00;;;;;10.49;67.99;101819.87;112575;238;168978;-59
2024/04/12 02:54:23;;;;;;;;;10.00;7.75;;;;;10.35;68.37;101814.40;112392;235;40504;-58
2024/04/12 02:57:05;;;;;;;;;11.00;10.00;;;;;10.23;68.68;101816.90;112603;235;40672;-55
2024/04/12 02:59:41;;;;;;;;;10.50;8.00;;;;;10.11;68.99;101827.94;112090;238;169720;-56
2024/04/12 03:02:15;;;;;;;;;10.00;8.00;;;;;10.03;69.39;101824.48;112229;239;39844;-56
2024/04/12 03:04:55;;;;;;;;;9.00;7.00;;;;;9.91;69.65;101827.05;112210;239;169617;-59
2024/04/12 03:07:33;;;;;;;;;14.00;10.67;;;;;9.80;70.06;101818.77;112500;235;40542;-59
2024/04/12 03:10:09;;;;;;;;;14.00;10.00;;;;;9.69;70.44;101821.13;112372;235;169254;-60
2024/04/12 03:12:51;;;;;;;;;11.00;9.00;;;;;9.61;70.69;101823.23;112280;235;40760;-60
2024/04/12 03:15:34;;;;;;;;;10.00;8.75;;;;;9.51;71.01;101825.46;112699;235;39911;-56
2024/04/12 03:18:11;;;;;;;;;7.50;7.00;;;;;9.43;71.18;101826.06;112212;236;40052;-56
2024/04/12 03:20:47;;;;;;;;;11.00;9.00;;;;;9.35;71.36;101827.20;112628;235;40260;-56
2024/04/12 03:23:28;;;;;;;;;9.67;8.00;;;;;9.27;71.68;101825.27;112109;235;168568;-56
2024/04/12 03:26:07;;;;;;;;;11.00;9.00;;;;;9.22;72.19;101821.75;112651;235;40823;-57
2024/04/12 03:28:46;;;;;;;;;10.00;9.00;;;;;9.15;72.53;101813.99;112199;235;169263;-57
2024/04/12 03:31:25;;;;;;;;;8.00;7.00;;;;;9.12;72.63;101809.50;112548;235;41584;-59
2024/04/12 03:34:00;;;;;;;;;11.00;10.00;;;;;9.10;72.94;101808.04;112473;235;169408;-60
2024/04/12 03:36:56;;;;;;;;;12.00;9.75;;;;;9.09;73.30;101808.33;112372;239;41562;-57
2024/04/12 03:39:39;;;;;;;;;11.00;9.00;;;;;9.13;73.70;101801.48;112662;235;39760;-59
2024/04/12 03:42:18;;;;;;;;;10.00;9.00;;;;;9.21;74.17;101800.86;112307;236;42026;-59
2024/04/12 03:44:56;;;;;;;;;13.00;10.67;;;;;9.33;74.23;101805.09;112725;239;40286;-59
2024/04/12 03:47:38;;;;;;;;;10.00;9.00;;;;;9.45;74.60;101807.84;112039;235;169759;-59
2024/04/12 03:50:16;;;;;;;;;13.00;10.00;;;;;9.53;74.94;101811.98;112769;235;41388;-57
2024/04/12 03:52:51;;;;;;;;;12.00;10.00;;;;;9.58;75.11;101806.46;112180;235;169738;-57
2024/04/12 03:55:28;;;;;;;;;14.00;11.00;;;;;9.55;75.20;101804.61;112531;238;40091;-60
2024/04/12 03:58:08;;;;;;;;;11.00;10.00;;;;;9.54;75.31;101808.05;112344;239;170222;-60
2024/04/12 04:00:42;;;;;;;;;12.00;9.00;;;;;9.47;75.51;101811.46;112295;235;39890;-58
2024/04/12 04:03:31;;;;;;;;;10.00;8.67;;;;;9.41;75.77;101814.68;112549;239;39931;-58
2024/04/12 04:06:11;;;;;;;;;12.00;10.00;;;;;9.33;75.64;101820.02;112165;235;40168;-57
2024/04/12 04:08:50;;;;;;;;;13.00;11.00;;;;;9.28;75.89;101825.20;112679;239;40131;-57
2024/04/12 04:11:33;;;;;;;;;12.00;9.00;;;;;9.27;75.96;101825.57;112579;238;169150;-60
2024/04/12 04:14:19;;;;;;;;;8.00;7.00;;;;;9.33;75.94;101824.84;112444;238;39944;-60
2024/04/12 04:17:02;;;;;;;;;13.00;10.33;;;;;9.35;76.04;101822.88;112036;234;169771;-57
2024/04/12 04:19:41;;;;;;;;;13.00;11.00;;;;;9.39;76.25;101820.48;112173;236;43078;-60
2024/04/12 04:25:19;;;;;;;;;14.50;11.75;;;;;9.79;76.46;101821.97;112340;239;40590;-57
2024/04/12 04:27:56;;;;;;;;;13.00;11.00;;;;;10.59;76.09;101817.56;112487;235;170149;-57
2024/04/12 04:30:41;;;;;;;;;11.00;9.00;;;;;11.79;75.65;101810.95;112344;235;40996;-60
2024/04/12 04:33:17;;;;;;;;;12.33;10.00;;;;;12.78;74.15;101808.20;112879;235;40674;-61
2024/04/12 04:35:58;;;;;;;;;12.00;10.00;;;;;12.76;73.01;101807.22;112222;239;169861;-60
2024/04/12 04:38:41;;;;;;;;;10.67;9.00;;;;;12.20;72.68;101808.89;112736;235;41193;-60
2024/04/12 04:41:27;;;;;;;;;11.00;8.67;;;;;11.81;73.02;101814.01;112288;235;169435;-60
2024/04/12 04:44:14;;;;;;;;;13.00;10.50;;;;;11.50;73.30;101816.42;112740;238;40304;-61
2024/04/12 04:46:51;;;;;;;;;13.00;10.00;;;;;12.24;73.23;101818.67;112198;239;169511;-60
2024/04/12 04:49:26;;;;;;;;;11.00;10.00;;;;;13.56;72.23;101817.11;112404;235;40293;-59
2024/04/12 04:52:01;;;;;;;;;10.00;10.00;;;;;14.37;71.21;101811.48;112404;235;169792;-61
2024/04/12 04:54:41;;;;;;;;;16.00;14.00;;;;;14.97;70.56;101805.57;112271;235;40268;-61
2024/04/12 04:57:20;;;;;;;;;13.00;11.75;;;;;15.20;69.82;101802.73;112677;239;40854;-61
2024/04/12 05:00:06;;;;;;;;;13.00;11.00;;;;;15.52;69.30;101812.15;112030;235;169432;-60
2024/04/12 05:02:49;;;;;;;;;13.00;12.00;;;;;16.34;67.92;101812.42;112693;235;41261;-59
2024/04/12 05:05:28;;;;;;;;;15.00;13.00;;;;;16.89;66.66;101815.75;112163;235;169413;-60
2024/04/12 05:08:08;;;;;;;;;19.00;14.00;;;;;17.19;65.48;101819.86;112662;235;40147;-60
2024/04/12 05:10:48;;;;;;;;;15.00;13.00;;;;;17.14;64.05;101823.78;111852;239;589092;-60
2024/04/12 05:13:25;;;;;;;;;16.00;13.00;;;;;16.64;63.51;101826.62;112418;235;41172;-60
2024/04/12 05:16:10;;;;;;;;;17.75;14.25;;;;;16.55;63.79;101826.31;112441;239;169386;-58
2024/04/12 05:18:47;;;;;;;;;18.75;15.75;;;;;17.36;62.94;101826.76;112259;235;39919;-58
2024/04/12 05:21:24;;;;;;;;;22.00;17.33;;;;;18.23;61.54;101829.35;112607;235;41165;-60
2024/04/12 05:24:02;;;;;;;;;21.00;18.00;;;;;18.36;60.15;101831.81;111971;239;169552;-60
2024/04/12 05:26:36;;;;;;;;;18.00;16.00;;;;;18.29;59.50;101824.84;112634;235;41306;-58
2024/04/12 05:29:14;;;;;;;;;16.33;14.33;;;;;19.04;59.63;101823.23;112148;239;169682;-58
2024/04/12 05:32:00;;;;;;;;;17.25;14.50;;;;;20.28;57.97;101818.61;112528;235;41279;-57
2024/04/12 05:34:42;;;;;;;;;15.00;14.00;;;;;21.55;56.59;101812.40;112244;239;169678;-61
2024/04/12 05:37:21;;;;;;;;;17.00;15.00;;;;;23.10;54.05;101807.28;112610;239;39984;-62
2024/04/12 05:40:05;;;;;;;;;17.00;15.00;;;;;24.26;51.98;101807.33;112541;235;169934;-59
2024/04/12 05:42:47;;;;;;;;;19.67;15.33;;;;;25.60;49.14;101807.83;112231;235;41551;-58
2024/04/12 05:45:21;;;;;;;;;17.00;15.00;;;;;26.21;47.54;101814.21;112730;235;39830;-61
2024/04/12 05:47:59;;;;;;;;;17.33;15.00;;;;;26.67;46.17;101806.11;112138;239;169538;-62
2024/04/12 05:50:39;;;;;;;;;15.33;14.00;;;;;27.26;45.38;101800.39;112318;235;39902;-58
2024/04/12 05:53:17;;;;;;;;;16.25;15.00;;;;;27.82;43.78;101804.73;112133;239;169637;-58
2024/04/12 05:56:20;;;;;;;;;16.00;13.00;;;;;28.37;42.15;101803.27;112333;236;39657;-57
2024/04/12 05:59:00;;;;;;;;;18.00;14.00;;;;;28.24;41.85;101805.39;112238;238;169826;-56
2024/04/12 06:01:35;;;;;;;;;12.67;11.33;;;;;28.74;40.97;101806.42;112465;239;39993;-60
2024/04/12 06:04:10;;;;;;;;;13.67;12.33;;;;;29.05;40.04;101803.67;112363;235;169974;-60
2024/04/12 06:06:44;;;;;;;;;14.00;12.00;;;;;29.35;39.07;101806.82;112350;239;41496;-58
2024/04/12 06:09:20;;;;;;;;;14.00;13.00;;;;;29.83;38.25;101805.67;112682;238;40221;-58
2024/04/12 06:12:01;;;;;;;;;12.00;11.00;;;;;29.67;37.57;101801.07;112009;239;169468;-60
2024/04/12 06:14:38;;;;;;;;;13.00;11.00;;;;;28.99;36.76;101797.89;112581;235;40932;-60
2024/04/12 06:17:15;;;;;;;;;15.00;13.00;;;;;28.68;37.35;101799.02;112237;235;169732;-61
2024/04/12 06:19:59;;;;;;;;;15.25;14.00;;;;;28.04;36.77;101802.30;112610;235;40834;-57
2024/04/12 06:22:41;;;;;;;;;13.75;12.00;;;;;27.73;36.68;101801.39;112260;235;170367;-58
2024/04/12 06:25:21;;;;;;;;;11.00;10.00;;;;;26.50;36.85;101807.12;112425;235;40551;-60
2024/04/12 06:28:01;;;;;;;;;11.00;10.00;;;;;25.30;37.57;101805.77;112520;239;169664;-61
2024/04/12 06:30:41;;;;;;;;;12.00;10.00;;;;;24.22;38.91;101803.45;112329;239;40476;-57
2024/04/12 06:33:24;;;;;;;;;12.25;12.00;;;;;23.64;39.36;101802.73;112588;238;41313;-57
2024/04/12 06:36:11;;;;;;;;;11.33;10.00;;;;;23.52;39.38;101799.59;112029;239;169592;-56
2024/04/12 06:38:55;;;;;;;;;12.00;11.00;;;;;23.22;39.62;101799.77;112606;235;40395;-56
2024/04/12 06:41:30;;;;;;;;;12.00;11.00;;;;;23.00;40.77;101798.07;112107;236;168991;-60
2024/04/12 06:44:15;;;;;;;;;10.25;9.00;;;;;22.90;40.98;101795.93;112427;238;40329;-60
2024/04/12 06:47:05;;;;;;;;;9.00;8.00;;;;;22.88;41.04;101795.50;112118;235;169066;-60
2024/04/12 06:49:46;;;;;;;;;11.00;9.00;;;;;22.80;41.42;101796.80;112357;235;40200;-57
2024/04/12 06:52:26;;;;;;;;;11.25;10.00;;;;;22.38;41.66;101806.30;112360;235;169263;-57
2024/04/12 06:55:07;;;;;;;;;10.00;9.00;;;;;21.88;42.04;101806.13;112392;235;39895;-57
2024/04/12 06:57:44;;;;;;;;;11.00;10.00;;;;;21.50;42.50;101806.01;112694;235;40930;-57
2024/04/12 07:00:29;;;;;;;;;11.75;10.00;;;;;21.54;42.72;101806.39;112262;236;40127;-59
2024/04/12 07:03:08;;;;;;;;;8.00;8.00;;;;;21.49;42.89;101806.54;112186;235;43380;-59
2024/04/12 07:05:54;;;;;;;;;8.50;8.00;;;;;21.12;43.23;101805.46;111993;235;169124;-56
2024/04/12 07:08:33;;;;;;;;;10.00;9.00;;;;;21.30;43.47;101806.35;112605;235;41213;-56
2024/04/12 07:11:07;;;;;;;;;9.00;8.00;;;;;21.49;43.68;101805.42;112194;235;169408;-56
2024/04/12 07:13:49;;;;;;;;;9.00;8.00;;;;;21.61;43.78;101806.28;112513;235;41066;-57
2024/04/12 07:16:35;;;;;;;;;9.50;9.00;;;;;21.57;43.76;101805.23;112364;235;169125;-60
2024/04/12 07:19:14;;;;;;;;;10.00;8.00;;;;;21.54;43.99;101809.86;112388;235;40687;-61
2024/04/12 07:21:54;;;;;;;;;8.00;7.00;;;;;21.32;44.44;101806.14;112523;235;169428;-58
2024/04/12 07:24:32;;;;;;;;;8.50;7.00;;;;;21.26;44.56;101810.17;112289;239;40284;-59
2024/04/12 07:27:14;;;;;;;;;8.00;7.00;;;;;21.07;44.64;101812.27;112647;239;41047;-60
2024/04/12 07:29:52;;;;;;;;;9.00;8.00;;;;;20.95;44.69;101814.20;112058;239;169734;-59
2024/04/12 07:32:35;;;;;;;;;9.67;8.00;;;;;20.68;45.02;101812.46;112654;235;40489;-59
2024/04/12 07:35:22;;;;;;;;;9.00;8.00;;;;;20.28;45.53;101818.46;112138;235;170238;-59
2024/04/12 07:38:04;;;;;;;;;6.00;6.00;;;;;20.27;45.94;101820.90;112577;235;40336;-58
2024/04/12 07:40:55;;;;;;;;;6.33;5.00;;;;;20.16;46.06;101824.42;112297;238;169087;-56
2024/04/12 07:43:42;;;;;;;;;6.00;5.00;;;;;19.88;46.41;101830.91;112444;235;40518;-56
2024/04/12 07:46:27;;;;;;;;;5.00;5.00;;;;;19.62;46.82;101835.22;112006;236;170083;-56
2024/04/12 07:49:04;;;;;;;;;4.00;4.00;;;;;19.45;47.22;101834.52;112385;235;40166;-57
2024/04/12 07:51:40;;;;;;;;;7.00;6.00;;;;;19.13;47.72;101833.44;112703;239;42530;-55
2024/04/12 07:54:20;;;;;;;;;6.00;5.00;;;;;18.97;48.21;101831.16;112183;239;40035;-56
2024/04/12 07:57:15;;;;;;;;;4.00;4.00;;;;;18.91;48.49;101834.31;112582;238;40832;-56
2024/04/12 07:59:55;;;;;;;;;5.00;5.00;;;;;18.81;49.02;101835.48;112021;235;170348;-61
2024/04/12 08:02:35;;;;;;;;;7.00;7.00;;;;;18.85;49.16;101840.24;112640;235;40332;-59
2024/04/12 08:05:14;;;;;;;;;6.00;5.00;;;;;18.64;49.36;101834.60;112177;238;169251;-59
2024/04/12 08:08:14;;;;;;;;;8.00;7.00;;;;;18.50;49.72;101834.65;112576;239;39963;-58
2024/04/12 08:10:56;;;;;;;;;6.00;6.00;;;;;18.39;50.01;101835.09;112312;239;170384;-58
2024/04/12 08:13:43;;;;;;;;;7.00;6.00;;;;;18.40;50.32;101837.70;112428;235;39605;-59
2024/04/12 08:16:27;;;;;;;;;6.00;5.50;;;;;18.46;50.64;101837.96;112378;235;169421;-58
2024/04/12 08:19:12;;;;;;;;;7.00;6.00;;;;;18.38;50.72;101840.17;112325;235;40411;-59
2024/04/12 08:21:54;;;;;;;;;6.00;5.00;;;;;18.34;51.15;101845.77;112462;235;169346;-56
2024/04/12 08:24:35;;;;;;;;;5.25;5.00;;;;;18.33;51.24;101848.28;112252;239;41010;-56
2024/04/12 08:27:09;;;;;;;;;5.00;5.00;;;;;18.19;51.53;101842.44;112665;235;41537;-56
2024/04/12 08:29:48;;;;;;;;;5.00;4.00;;;;;18.17;51.69;101838.67;112054;239;169121;-59
2024/04/12 08:32:31;;;;;;;;;3.50;3.50;;;;;18.26;51.94;101834.34;112529;238;41121;-59
2024/04/12 08:35:08;;;;;;;;;4.00;3.00;;;;;18.49;51.42;101823.86;112204;235;169088;-56
2024/04/12 08:37:44;;;;;;;;;5.00;4.00;;;;;18.55;51.86;101818.29;112504;235;41810;-56
2024/04/12 08:40:21;;;;;;;;;5.00;4.00;;;;;18.70;51.73;101823.12;112340;239;169647;-60
2024/04/12 08:43:09;;;;;;;;;4.00;4.00;;;;;18.73;51.70;101822.48;112437;239;40417;-60
2024/04/12 08:45:48;;;;;;;;;4.50;4.00;;;;;18.72;51.86;101823.71;112684;239;39892;-56
2024/04/12 08:48:25;;;;;;;;;4.00;4.00;;;;;18.57;52.14;101821.41;112259;236;41027;-58
2024/04/12 08:51:08;;;;;;;;;3.67;3.00;;;;;18.59;52.27;101822.42;112222;235;40874;-56
2024/04/12 08:53:47;;;;;;;;;4.00;3.00;;;;;18.58;52.58;101818.27;111936;239;169605;-59
2024/04/12 08:56:31;;;;;;;;;4.00;4.00;;;;;18.70;52.69;101821.20;112112;239;40722;-56
2024/04/12 08:59:17;;;;;;;;;5.75;5.00;;;;;18.79;52.70;101820.56;111900;239;169080;-56
2024/04/12 09:01:57;;;;;;;;;6.00;5.00;;;;;18.91;52.53;101818.56;112075;239;41058;-56
2024/04/12 09:04:39;;;;;;;;;7.00;6.00;;;;;19.03;52.47;101819.54;111937;235;169547;-58
2024/04/12 09:07:20;;;;;;;;;7.00;6.33;;;;;19.09;52.63;101819.58;112040;235;40575;-59
2024/04/12 09:10:00;;;;;;;;;6.00;5.00;;;;;19.17;52.47;101820.52;111953;239;169321;-55
2024/04/12 09:12:36;;;;;;;;;5.00;4.00;;;;;19.19;51.98;101822.70;112092;239;41156;-56
2024/04/12 09:15:14;;;;;;;;;6.50;6.00;;;;;19.16;52.25;101823.38;112111;235;39978;-60
2024/04/12 09:17:58;;;;;;;;;7.00;6.50;;;;;19.10;52.44;101818.52;111919;235;169029;-56
2024/04/12 09:20:36;;;;;;;;;8.25;7.25;;;;;19.08;52.53;101821.60;112157;235;41445;-58
2024/04/12 09:23:19;;;;;;;;;7.00;7.00;;;;;19.11;52.54;101820.47;112010;235;168809;-59
2024/04/12 09:25:59;;;;;;;;;8.00;7.00;;;;;19.10;52.25;101821.27;112159;235;40350;-59
2024/04/12 09:28:40;;;;;;;;;7.00;7.00;;;;;19.11;52.42;101817.02;111996;235;169237;-58
2024/04/12 09:37:28;;;;;;;;;8.75;7.50;;;;;19.09;53.05;101816.96;112048;235;39704;-56
2024/04/12 09:40:28;;;;;;;;;9.00;8.00;;;;;18.99;52.79;101817.46;111946;235;169225;-55
2024/04/12 09:43:28;;;;;;;;;8.00;7.00;;;;;18.83;53.02;101816.41;112053;239;41216;-55
2024/04/12 09:46:08;;;;;;;;;8.00;7.00;;;;;18.76;53.36;101812.23;111924;235;170726;-56
2024/04/12 10:38:34;;;;;;;;;3.00;3.00;;;;;19.44;52.47;101786.19;112016;239;39775;-57
2024/04/12 10:41:12;;;;;;;;;5.00;5.00;;;;;19.46;52.80;101788.46;111984;239;168949;-56
2024/04/12 10:43:51;;;;;;;;;4.00;3.00;;;;;19.52;53.18;101784.58;112070;235;39739;-56
2024/04/12 10:46:33;;;;;;;;;4.00;3.00;;;;;19.75;53.12;101781.10;111978;235;169374;-59
2024/04/12 10:49:10;;;;;;;;;4.00;4.00;;;;;19.86;52.96;101780.77;112069;235;40774;-55
2024/04/12 10:51:47;;;;;;;;;6.00;5.00;;;;;19.99;52.63;101778.73;112153;235;39969;-60
2024/04/12 10:54:25;;;;;;;;;6.00;5.00;;;;;19.84;52.37;101779.04;111964;239;168920;-59
2024/04/12 10:57:06;;;;;;;;;6.00;5.00;;;;;19.61;52.62;101784.14;112109;239;40496;-56
2024/04/12 10:59:51;;;;;;;;;5.00;5.00;;;;;19.33;53.43;101783.11;112024;240;169089;-59
2024/04/12 11:02:30;;;;;;;;;5.00;5.00;;;;;19.13;53.88;101779.92;112150;235;40563;-59
2024/04/12 11:07:58;;;;;;;;;5.00;4.00;;;;;19.18;54.35;101775.95;112095;235;40993;-59
2024/04/12 11:10:54;;;;;;;;;3.00;3.00;;;;;19.21;54.32;101770.42;111992;235;169410;-56
2024/04/12 11:13:35;;;;;;;;;5.00;4.25;;;;;19.19;54.29;101765.76;112074;239;41057;-58
2024/04/12 11:33:31;;;;;;;;;4.00;4.00;;;;;19.68;54.45;101748.67;112134;235;40768;-57
2024/04/12 11:36:10;;;;;;;;;5.75;5.00;;;;;19.77;54.22;101747.13;111952;235;170019;-56
2024/04/12 11:38:53;;;;;;;;;4.00;4.00;;;;;19.82;53.86;101743.40;112114;239;40269;-60
2024/04/12 11:41:36;;;;;;;;;4.00;4.00;;;;;19.90;53.77;101742.30;111982;235;169192;-56
2024/04/12 11:44:19;;;;;;;;;3.00;3.00;;;;;19.91;53.22;101739.73;112096;235;40205;-58
2024/04/12 11:47:01;;;;;;;;;5.00;4.00;;;;;19.79;53.59;101737.04;111946;239;169081;-56
2024/04/12 11:49:41;;;;;;;;;4.00;3.00;;;;;19.88;53.52;101734.88;112139;239;40138;-59
2024/04/12 11:52:17;;;;;;;;;4.00;3.00;;;;;20.03;53.60;101733.89;111950;235;169364;-59
2024/04/12 11:54:53;;;;;;;;;6.00;6.00;;;;;20.10;53.68;101728.98;112127;239;40525;-60
2024/04/12 11:57:37;;;;;;;;;5.67;5.00;;;;;20.09;52.89;101726.09;112085;239;41159;-60
2024/04/12 12:00:15;;;;;;;;;5.00;5.00;;;;;19.92;52.80;101722.30;111917;236;169133;-55
2024/04/12 12:02:52;;;;;;;;;5.00;4.00;;;;;19.77;52.98;101723.55;112044;239;41020;-55
2024/04/12 12:05:28;;;;;;;;;4.00;4.00;;;;;19.65;53.38;101720.73;111880;236;169143;-55
2024/04/12 12:08:07;;;;;;;;;5.75;4.50;;;;;19.55;53.55;101723.42;112060;235;40509;-55
2024/04/12 12:10:45;;;;;;;;;5.00;4.00;;;;;19.57;53.82;101721.27;111949;235;169197;-59
2024/04/12 12:13:28;;;;;;;;;6.00;6.00;;;;;19.50;53.86;101720.86;112108;239;40874;-59
2024/04/12 12:16:08;;;;;;;;;9.00;7.00;;;;;19.52;53.88;101716.21;112099;235;41791;-56
2024/04/12 12:18:49;;;;;;;;;6.00;5.00;;;;;19.54;53.60;101711.90;112094;237;41476;-56
2024/04/12 12:21:25;;;;;;;;;5.00;4.00;;;;;19.46;53.74;101709.69;112188;235;42076;-60
2024/04/12 12:24:05;;;;;;;;;13.00;11.00;;;;;19.30;54.03;101709.25;111985;239;169156;-60
2024/04/12 12:26:49;;;;;;;;;6.00;5.00;;;;;19.19;53.91;101711.46;112135;239;40037;-55
2024/04/12 12:29:28;;;;;;;;;4.00;4.00;;;;;18.96;53.91;101709.65;111972;235;169121;-59
2024/04/12 12:32:04;;;;;;;;;5.00;4.33;;;;;18.81;54.19;101712.65;112078;235;40449;-56
2024/04/12 12:34:43;;;;;;;;;6.00;5.00;;;;;18.62;54.46;101716.57;111978;239;169450;-57
2024/04/12 12:37:19;;;;;;;;;5.00;4.00;;;;;18.55;54.83;101709.62;112047;239;41526;-59
2024/04/12 12:40:01;;;;;;;;;6.00;5.00;;;;;18.51;54.87;101706.33;112131;235;41824;-56
2024/04/12 12:42:43;;;;;;;;;7.00;6.00;;;;;18.53;54.87;101699.42;112083;236;39477;-57
2024/04/12 12:45:24;;;;;;;;;5.00;5.00;;;;;18.63;54.93;101695.34;112627;235;42484;-59
2024/04/12 12:48:02;;;;;;;;;4.25;4.00;;;;;18.59;55.29;101694.55;112055;239;169505;-59
2024/04/12 12:50:44;;;;;;;;;6.00;4.75;;;;;18.63;55.23;101692.77;112201;235;40686;-59
2024/04/12 12:53:30;;;;;;;;;4.25;4.00;;;;;18.66;55.22;101692.81;111964;240;169386;-59
2024/04/12 12:56:09;;;;;;;;;3.67;3.33;;;;;18.73;55.08;101690.04;112136;235;40338;-59
2024/04/12 12:58:50;;;;;;;;;4.00;3.67;;;;;18.74;55.04;101687.13;111975;235;169351;-60
2024/04/12 13:01:34;;;;;;;;;5.00;5.00;;;;;18.53;55.02;101689.77;112114;235;41295;-56
2024/04/12 13:04:09;;;;;;;;;5.00;3.50;;;;;18.42;55.02;101691.05;112116;235;40527;-56
2024/04/12 13:06:45;;;;;;;;;4.33;3.33;;;;;18.35;55.20;101690.29;112073;235;40266;-55
2024/04/12 13:09:23;;;;;;;;;3.00;2.50;;;;;18.21;55.53;101691.11;112137;235;39838;-55
2024/04/12 13:12:01;;;;;;;;;4.00;3.00;;;;;18.18;55.40;101691.61;111352;235;821923;-60
2024/04/12 13:14:45;;;;;;;;;3.00;3.00;;;;;18.12;55.64;101684.27;112170;235;40645;-55
2024/04/12 13:17:25;;;;;;;;;3.00;3.00;;;;;18.13;55.85;101681.45;111914;235;169058;-55
2024/04/12 13:20:06;;;;;;;;;3.50;3.00;;;;;18.15;55.69;101680.52;112076;239;40155;-56
2024/04/12 13:22:44;;;;;;;;;3.50;2.50;;;;;18.08;56.03;101675.42;111908;235;170181;-55
2024/04/12 13:25:20;;;;;;;;;4.00;4.00;;;;;18.04;56.16;101666.95;112081;235;40547;-56
2024/04/12 13:27:54;;;;;;;;;3.00;3.00;;;;;18.05;56.51;101658.42;112071;239;42472;-56
2024/04/12 13:30:36;;;;;;;;;5.00;4.00;;;;;18.14;56.12;101655.15;111979;235;170332;-59
2024/04/12 13:33:14;;;;;;;;;3.00;2.00;;;;;18.21;55.97;101648.64;112152;235;41782;-60
2024/04/12 13:36:00;;;;;;;;;3.00;3.00;;;;;18.26;56.38;101649.94;111995;240;168981;-68